Time;durP1;ratioP1;P1;durP2;ratioP2;P2;SDS_P1;SDS_P2;PMS_P1;PMS_P2;Temp;Humidity;BMP_temperature;BMP_pressure;BME280_temperature;BME280_humidity;BME280_pressure;Samples;Min_cycle;Max_cycle;Signal;HPM_P1;HPM_P2
2022/05/28 00:02:04;;;;;;;7.25;2.70;;;13.90;99.90;;;;;;5056811;28;20454;-75
2022/05/28 00:04:30;;;;;;;6.05;2.83;;;13.80;99.90;;;;;;5075206;28;20077;-76
2022/05/28 00:06:55;;;;;;;8.85;2.63;;;13.70;99.90;;;;;;5073072;28;20104;-76
2022/05/28 00:09:21;;;;;;;5.38;2.20;;;13.70;99.90;;;;;;5074648;28;20134;-76
2022/05/28 00:11:47;;;;;;;6.72;2.83;;;13.60;99.90;;;;;;5074760;28;20381;-76
2022/05/28 00:14:13;;;;;;;6.53;2.60;;;13.50;99.90;;;;;;5073194;28;20775;-76
2022/05/28 00:16:41;;;;;;;9.95;3.47;;;13.40;99.90;;;;;;5074632;28;20024;-75
2022/05/28 00:19:08;;;;;;;7.05;2.90;;;13.30;99.90;;;;;;5073651;28;20032;-76
2022/05/28 00:21:34;;;;;;;5.38;2.60;;;13.30;99.90;;;;;;5073700;28;20127;-76
2022/05/28 00:24:00;;;;;;;7.75;2.65;;;13.20;99.90;;;;;;5073283;28;20090;-75
2022/05/28 00:26:25;;;;;;;7.00;3.20;;;13.20;99.90;;;;;;5074332;28;20024;-75
2022/05/28 00:28:52;;;;;;;4.28;2.97;;;13.20;99.90;;;;;;5073564;28;20040;-75
2022/05/28 00:31:18;;;;;;;6.38;3.13;;;13.20;99.90;;;;;;5073787;28;20031;-75
2022/05/28 00:33:44;;;;;;;9.07;3.53;;;13.10;99.90;;;;;;5074039;28;20025;-75
2022/05/28 00:36:11;;;;;;;5.13;2.90;;;13.10;99.90;;;;;;5073357;28;20031;-75
2022/05/28 00:38:38;;;;;;;8.27;3.13;;;13.00;99.90;;;;;;5074133;28;20108;-75
2022/05/28 00:41:05;;;;;;;7.07;3.20;;;;;;;;;;5072860;28;20041;-75
2022/05/28 00:43:31;;;;;;;5.78;2.85;;;12.90;99.90;;;;;;5074134;28;20020;-76
2022/05/28 00:46:07;;;;;;;11.93;3.67;;;12.80;99.90;;;;;;5072860;28;20025;-76
2022/05/28 00:48:35;;;;;;;9.48;3.50;;;12.70;99.90;;;;;;5067514;28;20020;-75
2022/05/28 00:51:08;;;;;;;12.38;4.28;;;12.60;99.90;;;;;;5073456;28;20107;-74
2022/05/28 00:53:34;;;;;;;8.57;2.92;;;12.60;99.90;;;;;;5065902;28;20052;-75
2022/05/28 00:56:02;;;;;;;9.43;3.50;;;12.50;99.90;;;;;;5073055;28;20024;-76
2022/05/28 00:58:29;;;;;;;8.63;2.67;;;12.50;99.90;;;;;;5073493;28;20478;-75
2022/05/28 01:00:54;;;;;;;7.85;3.17;;;12.50;99.90;;;;;;5072663;28;20393;-76
2022/05/28 01:03:27;;;;;;;8.57;3.40;;;12.40;99.90;;;;;;5073329;28;20040;-76
2022/05/28 01:06:10;;;;;;;6.47;3.33;;;12.40;99.90;;;;;;5073529;28;20029;-76
2022/05/28 01:08:56;;;;;;;6.90;3.15;;;12.40;99.90;;;;;;5072970;28;20036;-75
2022/05/28 01:11:34;;;;;;;11.25;3.20;;;12.40;99.90;;;;;;5072900;28;20462;-75
2022/05/28 01:14:23;;;;;;;10.57;3.85;;;12.40;99.90;;;;;;5065488;28;20028;-75
2022/05/28 01:16:55;;;;;;;10.30;3.42;;;12.40;99.90;;;;;;5073320;28;20028;-75
2022/05/28 01:19:29;;;;;;;9.63;3.42;;;12.30;99.90;;;;;;5073155;28;20024;-76
2022/05/28 01:22:06;;;;;;;5.03;2.90;;;12.30;99.90;;;;;;5072779;28;20082;-76
2022/05/28 01:25:00;;;;;;;7.18;3.80;;;12.40;99.90;;;;;;5073615;28;20037;-75
2022/05/28 01:27:34;;;;;;;11.77;4.90;;;12.30;99.90;;;;;;5072729;28;20442;-75
2022/05/28 01:30:04;;;;;;;5.13;3.20;;;12.30;99.90;;;;;;5072145;28;20119;-75
2022/05/28 01:32:32;;;;;;;8.82;3.90;;;12.30;99.90;;;;;;5073078;28;20038;-74
2022/05/28 01:35:00;;;;;;;9.80;4.20;;;12.30;99.90;;;;;;5072231;28;20089;-74
2022/05/28 01:37:26;;;;;;;9.48;3.90;;;12.30;99.90;;;;;;5073168;28;20056;-74
2022/05/28 01:39:55;;;;;;;10.43;3.50;;;12.30;99.90;;;;;;5072936;28;20028;-74
2022/05/28 01:42:22;;;;;;;13.50;3.88;;;12.30;99.90;;;;;;5072365;28;20036;-74
2022/05/28 01:44:50;;;;;;;11.95;3.50;;;12.40;99.90;;;;;;5072998;28;20095;-74
2022/05/28 01:47:16;;;;;;;9.15;3.13;;;12.30;99.90;;;;;;5072052;28;20037;-74
2022/05/28 01:49:43;;;;;;;9.50;3.17;;;12.40;99.90;;;;;;5072308;28;20025;-74
2022/05/28 01:52:12;;;;;;;8.65;2.95;;;12.30;99.90;;;;;;5072085;28;20032;-74
2022/05/28 01:54:43;;;;;;;9.90;3.03;;;12.30;99.90;;;;;;5071818;28;20047;-74
2022/05/28 01:57:09;;;;;;;8.82;3.33;;;12.30;99.90;;;;;;5071612;28;20036;-75
2022/05/28 01:59:35;;;;;;;6.60;2.78;;;12.30;99.90;;;;;;5072601;28;20016;-73
2022/05/28 02:02:08;;;;;;;7.97;2.83;;;12.20;99.90;;;;;;5071486;28;20056;-74
2022/05/28 02:04:36;;;;;;;9.50;2.70;;;12.20;99.90;;;;;;5072267;28;20020;-76
2022/05/28 02:07:02;;;;;;;7.25;2.47;;;12.20;99.90;;;;;;5071458;28;20522;-75
2022/05/28 02:09:41;;;;;;;10.52;2.53;;;12.20;99.90;;;;;;5071531;28;20028;-76
2022/05/28 02:12:40;;;;;;;13.73;2.90;;;12.20;99.90;;;;;;5070629;28;20405;-76
2022/05/28 02:15:25;;;;;;;11.02;2.42;;;12.20;99.90;;;;;;5071218;28;20077;-75
2022/05/28 02:17:57;;;;;;;13.93;2.92;;;12.20;99.90;;;;;;5072441;28;20040;-74
2022/05/28 02:20:33;;;;;;;9.00;3.17;;;12.10;99.90;;;;;;5071459;28;20075;-75
2022/05/28 02:23:15;;;;;;;7.65;2.58;;;12.00;99.90;;;;;;5071137;28;20045;-75
2022/05/28 02:26:06;;;;;;;11.63;2.10;;;12.00;99.90;;;;;;5064243;28;20029;-74
2022/05/28 02:28:33;;;;;;;11.07;2.17;;;11.90;99.90;;;;;;5071923;28;20033;-74
2022/05/28 02:31:03;;;;;;;8.50;2.40;;;;;;;;;;5071561;28;20024;-75
2022/05/28 02:33:33;;;;;;;16.20;3.13;;;;;;;;;;5072291;28;20051;-74
2022/05/28 02:35:59;;;;;;;16.52;3.75;;;;;;;;;;5070172;28;20037;-74
2022/05/28 02:38:25;;;;;;;6.07;2.45;;;;;;;;;;5053692;28;20408;-74
2022/05/28 02:40:55;;;;;;;10.00;2.50;;;;;;;;;;5071548;28;20482;-74
2022/05/28 02:43:22;;;;;;;8.57;2.28;;;;;;;;;;5071069;28;20009;-74
2022/05/28 02:45:48;;;;;;;8.40;2.25;;;;;;;;;;5071781;28;20025;-74
2022/05/28 02:48:14;;;;;;;5.90;2.00;;;;;;;;;;5070735;28;20019;-75
2022/05/28 02:50:40;;;;;;;12.40;2.33;;;;;;;;;;5071370;28;20059;-75
2022/05/28 02:53:06;;;;;;;7.93;1.40;;;;;;;;;;5070313;28;20466;-75
2022/05/28 02:55:32;;;;;;;6.32;2.42;;;;;;;;;;5064948;28;20048;-74
2022/05/28 02:57:58;;;;;;;8.60;2.20;;;11.50;99.90;;;;;;5071326;28;20059;-73
2022/05/28 03:00:23;;;;;;;9.57;2.45;;;11.40;99.90;;;;;;5070880;28;20469;-74
2022/05/28 03:02:49;;;;;;;10.13;1.90;;;11.30;99.90;;;;;;5070928;28;20164;-74
2022/05/28 03:05:18;;;;;;;10.18;2.42;;;11.30;99.90;;;;;;5052745;28;20033;-73
2022/05/28 03:07:44;;;;;;;9.52;2.35;;;11.20;99.90;;;;;;5063244;28;20037;-74
2022/05/28 03:10:11;;;;;;;9.88;2.13;;;11.20;99.90;;;;;;5070777;28;20035;-74
2022/05/28 03:12:38;;;;;;;12.68;2.40;;;11.10;99.90;;;;;;5070996;28;20479;-73
2022/05/28 03:15:05;;;;;;;11.15;2.20;;;11.10;99.90;;;;;;5070669;28;20078;-74
2022/05/28 03:17:30;;;;;;;9.98;1.98;;;11.00;99.90;;;;;;5071362;28;20024;-75
2022/05/28 03:19:59;;;;;;;14.82;2.33;;;11.00;99.90;;;;;;5070766;28;20140;-74
2022/05/28 03:22:24;;;;;;;14.52;2.60;;;11.00;99.90;;;;;;5070293;28;20042;-76
2022/05/28 03:24:50;;;;;;;10.15;2.47;;;10.90;99.90;;;;;;5071194;28;20103;-76
2022/05/28 03:27:15;;;;;;;12.00;2.58;;;10.90;99.90;;;;;;5070280;28;20035;-76
2022/05/28 03:29:41;;;;;;;8.57;1.98;;;10.80;99.90;;;;;;5070932;28;20472;-76
2022/05/28 03:32:07;;;;;;;8.23;2.00;;;10.80;99.90;;;;;;5070288;28;20033;-76
2022/05/28 03:34:33;;;;;;;10.05;2.40;;;10.80;99.90;;;;;;5070985;28;20044;-76
2022/05/28 03:36:58;;;;;;;12.90;2.53;;;10.80;99.90;;;;;;5070898;28;20036;-75
2022/05/28 03:39:24;;;;;;;7.50;2.13;;;10.70;99.90;;;;;;5070056;28;20103;-75
2022/05/28 03:41:49;;;;;;;6.78;1.73;;;10.70;99.90;;;;;;5070395;28;20058;-76
2022/05/28 03:44:15;;;;;;;11.73;2.03;;;10.70;99.90;;;;;;5070347;28;20024;-76
2022/05/28 03:46:42;;;;;;;14.13;2.63;;;10.60;99.90;;;;;;5070762;28;20051;-76
2022/05/28 03:49:19;;;;;;;7.82;2.10;;;10.60;99.90;;;;;;5070114;28;20024;-75
2022/05/28 03:51:45;;;;;;;10.55;2.30;;;10.60;99.90;;;;;;5070226;28;20505;-74
2022/05/28 03:54:10;;;;;;;7.82;2.15;;;10.60;99.90;;;;;;5051928;28;20041;-74
2022/05/28 03:56:39;;;;;;;8.40;1.92;;;10.60;99.90;;;;;;5070942;28;20422;-75
2022/05/28 03:59:06;;;;;;;7.93;2.65;;;10.60;99.90;;;;;;5070655;28;20120;-76
2022/05/28 04:01:33;;;;;;;7.78;2.13;;;10.50;99.90;;;;;;5070520;28;20496;-73
2022/05/28 04:03:58;;;;;;;7.15;1.77;;;10.50;99.90;;;;;;5070450;28;20032;-75
2022/05/28 04:06:24;;;;;;;7.60;2.03;;;10.50;99.90;;;;;;5069682;28;20028;-72
2022/05/28 04:08:50;;;;;;;11.50;2.08;;;10.50;99.90;;;;;;5052954;28;20040;-75
2022/05/28 04:11:17;;;;;;;10.77;1.83;;;10.50;99.90;;;;;;5069632;28;20032;-73
2022/05/28 04:13:43;;;;;;;8.38;1.95;;;10.50;99.90;;;;;;5052615;28;20039;-73
2022/05/28 04:16:09;;;;;;;13.25;2.42;;;10.50;99.90;;;;;;5070060;28;20031;-73
2022/05/28 04:18:35;;;;;;;6.80;2.00;;;10.50;99.90;;;;;;5070401;28;20092;-73
2022/05/28 04:21:01;;;;;;;6.80;1.70;;;10.50;99.90;;;;;;5069786;28;20127;-73
2022/05/28 04:23:26;;;;;;;7.50;1.50;;;10.50;99.90;;;;;;5069746;28;20097;-73
2022/05/28 04:25:52;;;;;;;8.30;1.75;;;10.50;99.90;;;;;;5070364;28;20405;-73
2022/05/28 04:28:19;;;;;;;8.73;1.73;;;10.60;99.90;;;;;;5069356;28;20060;-73
2022/05/28 04:30:44;;;;;;;9.45;2.17;;;10.50;99.90;;;;;;5070771;28;20024;-74
2022/05/28 04:33:10;;;;;;;11.15;2.10;;;10.60;99.90;;;;;;5069400;28;20032;-76
2022/05/28 04:35:36;;;;;;;12.18;2.30;;;10.60;99.90;;;;;;5070416;28;20024;-75
2022/05/28 04:38:01;;;;;;;8.63;2.00;;;10.70;99.90;;;;;;5070554;28;20477;-75
2022/05/28 04:40:27;;;;;;;10.18;1.65;;;10.70;99.90;;;;;;5069262;28;20044;-74
2022/05/28 04:42:53;;;;;;;11.93;2.15;;;10.70;99.90;;;;;;5070328;28;20477;-74
2022/05/28 04:45:19;;;;;;;13.18;3.22;;;10.70;99.90;;;;;;5071221;28;20029;-74
2022/05/28 04:47:44;;;;;;;11.15;1.80;;;10.80;99.90;;;;;;5073928;28;20052;-75
2022/05/28 04:50:11;;;;;;;11.10;2.47;;;10.80;99.90;;;;;;5072613;28;20029;-75
2022/05/28 04:52:38;;;;;;;11.85;2.08;;;10.90;99.90;;;;;;5073854;28;20462;-74
2022/05/28 04:55:08;;;;;;;7.35;1.65;;;10.90;99.90;;;;;;5073075;28;20394;-75
2022/05/28 04:57:34;;;;;;;8.15;1.98;;;10.90;99.90;;;;;;5073169;28;20028;-75
2022/05/28 04:59:59;;;;;;;7.45;1.88;;;10.90;99.90;;;;;;5073018;28;20496;-74
2022/05/28 05:02:26;;;;;;;10.77;2.20;;;11.00;99.90;;;;;;5072980;28;20024;-75
2022/05/28 05:04:56;;;;;;;10.00;1.75;;;11.10;99.90;;;;;;5073415;28;20374;-75
2022/05/28 05:07:21;;;;;;;7.55;1.73;;;11.20;99.90;;;;;;5072389;28;20052;-75
2022/05/28 05:09:47;;;;;;;7.60;2.10;;;11.30;99.90;;;;;;5066200;28;20063;-76
2022/05/28 05:12:13;;;;;;;12.02;2.40;;;11.30;99.90;;;;;;5043978;28;20028;-76
2022/05/28 05:14:38;;;;;;;7.53;1.67;;;11.50;99.90;;;;;;5062725;28;20035;-75
2022/05/28 05:17:04;;;;;;;7.57;1.50;;;11.50;99.90;;;;;;5063999;28;20025;-75
2022/05/28 05:19:30;;;;;;;12.52;2.50;;;11.60;99.90;;;;;;5064251;28;20094;-75
2022/05/28 05:21:55;;;;;;;10.35;2.25;;;11.70;99.90;;;;;;5064552;28;20072;-75
2022/05/28 05:24:22;;;;;;;11.60;2.33;;;11.80;99.90;;;;;;5061980;28;20052;-75
2022/05/28 05:26:48;;;;;;;12.40;2.42;;;11.80;99.90;;;;;;5071796;28;20346;-75
2022/05/28 05:29:14;;;;;;;8.80;2.13;;;11.80;99.90;;;;;;5071683;28;20036;-75
2022/05/28 05:31:40;;;;;;;9.18;2.20;;;11.80;99.90;;;;;;5056355;28;20040;-72
2022/05/28 05:34:07;;;;;;;7.57;2.30;;;11.80;99.90;;;;;;5037783;28;20021;-72
2022/05/28 05:36:33;;;;;;;12.02;2.42;;;11.90;99.90;;;;;;5069520;28;20492;-72
2022/05/28 05:38:59;;;;;;;11.82;2.30;;;12.00;99.90;;;;;;5073256;28;20363;-72
2022/05/28 05:41:24;;;;;;;10.35;1.92;;;12.00;99.90;;;;;;5055355;28;20081;-74
2022/05/28 05:43:50;;;;;;;10.13;2.90;;;12.00;99.90;;;;;;5074072;28;20036;-72
2022/05/28 05:46:16;;;;;;;9.65;2.42;;;12.00;99.90;;;;;;5061278;28;20394;-73
2022/05/28 05:48:42;;;;;;;10.88;3.00;;;12.10;99.90;;;;;;5072678;28;20058;-73
2022/05/28 05:51:11;;;;;;;10.70;2.30;;;12.20;99.90;;;;;;5072360;28;20039;-73
2022/05/28 05:53:37;;;;;;;8.57;2.08;;;12.30;99.90;;;;;;5068623;28;20025;-73
2022/05/28 05:56:03;;;;;;;12.82;2.38;;;12.40;99.30;;;;;;5072359;28;20033;-72
2022/05/28 05:58:29;;;;;;;10.75;2.58;;;12.40;99.50;;;;;;5071777;28;20190;-73
2022/05/28 06:00:55;;;;;;;11.55;2.58;;;12.40;99.20;;;;;;5071981;28;20032;-72
2022/05/28 06:03:21;;;;;;;11.65;2.10;;;12.40;99.00;;;;;;5071690;28;20029;-72
2022/05/28 06:05:47;;;;;;;9.35;2.28;;;12.50;99.40;;;;;;5048847;28;20117;-72
2022/05/28 06:08:15;;;;;;;8.02;2.22;;;12.50;99.60;;;;;;5070354;28;20033;-72
2022/05/28 06:10:43;;;;;;;9.15;2.22;;;12.50;98.90;;;;;;5046540;28;20355;-73
2022/05/28 06:13:08;;;;;;;12.90;2.30;;;12.50;98.70;;;;;;5071584;28;20036;-73
2022/05/28 06:15:34;;;;;;;8.60;2.10;;;12.60;98.60;;;;;;5071462;28;20103;-73
2022/05/28 06:17:59;;;;;;;16.50;2.28;;;12.80;97.50;;;;;;5071913;28;20040;-73
2022/05/28 06:20:25;;;;;;;12.35;2.10;;;12.90;97.50;;;;;;5070612;28;20444;-73
2022/05/28 06:22:51;;;;;;;11.48;2.40;;;12.90;96.80;;;;;;5071280;28;20029;-73
2022/05/28 06:25:16;;;;;;;9.40;2.28;;;12.80;97.10;;;;;;5071137;28;20033;-72
2022/05/28 06:27:46;;;;;;;9.32;1.88;;;12.90;97.10;;;;;;5054274;28;20029;-78
2022/05/28 06:30:12;;;;;;;10.20;2.05;;;13.00;97.00;;;;;;5071174;28;20145;-79
2022/05/28 06:32:38;;;;;;;9.15;1.77;;;13.00;95.80;;;;;;5071314;28;20037;-75
2022/05/28 06:35:04;;;;;;;10.70;2.03;;;13.10;94.20;;;;;;5068975;28;20043;-76
2022/05/28 06:37:29;;;;;;;5.60;1.77;;;13.10;94.50;;;;;;5070599;28;20020;-76
2022/05/28 06:39:55;;;;;;;8.50;1.95;;;13.00;93.50;;;;;;5071303;28;20049;-75
2022/05/28 06:42:21;;;;;;;13.98;1.80;;;13.00;93.00;;;;;;5071016;28;20381;-76
2022/05/28 06:44:46;;;;;;;7.20;1.58;;;13.00;93.10;;;;;;5071032;28;20035;-75
2022/05/28 06:47:12;;;;;;;7.68;1.40;;;13.00;93.40;;;;;;5070110;28;20028;-76
2022/05/28 06:49:38;;;;;;;6.57;1.88;;;13.00;93.00;;;;;;5071175;28;20032;-77
2022/05/28 06:52:04;;;;;;;6.55;1.77;;;13.10;93.40;;;;;;5071373;28;20052;-73
2022/05/28 06:54:29;;;;;;;8.95;1.42;;;13.20;92.00;;;;;;5069975;28;20028;-74
2022/05/28 06:56:55;;;;;;;6.07;1.38;;;13.20;92.30;;;;;;5070936;28;20060;-76
2022/05/28 06:59:20;;;;;;;5.55;1.70;;;13.30;92.10;;;;;;5070165;28;20028;-76
2022/05/28 07:01:46;;;;;;;8.90;1.52;;;13.30;92.50;;;;;;5071265;28;20071;-76
2022/05/28 07:04:12;;;;;;;8.23;1.73;;;13.50;92.30;;;;;;5066433;28;20067;-74
2022/05/28 07:06:37;;;;;;;8.20;1.33;;;13.60;92.30;;;;;;5070593;28;20078;-75
2022/05/28 07:09:07;;;;;;;6.97;1.83;;;13.70;91.80;;;;;;5070497;28;20410;-74
2022/05/28 07:11:33;;;;;;;9.38;1.75;;;13.80;91.80;;;;;;5069839;28;20115;-73
2022/05/28 07:13:59;;;;;;;5.63;1.83;;;13.70;91.30;;;;;;5071040;28;20032;-76
2022/05/28 07:16:24;;;;;;;8.45;1.17;;;13.70;90.40;;;;;;5070413;28;20094;-75
2022/05/28 07:18:50;;;;;;;6.45;1.77;;;13.60;90.70;;;;;;5071095;28;20343;-76
2022/05/28 07:21:16;;;;;;;5.63;1.50;;;13.70;90.50;;;;;;5069913;28;20051;-77
2022/05/28 07:23:41;;;;;;;9.77;1.30;;;13.70;90.00;;;;;;5071481;28;20428;-77
2022/05/28 07:26:17;;;;;;;14.93;1.67;;;13.70;90.80;;;;;;5070473;28;20120;-73
2022/05/28 07:28:45;;;;;;;5.18;1.25;;;13.90;90.50;;;;;;5062709;28;20032;-74
2022/05/28 07:31:20;;;;;;;7.40;1.45;;;14.00;88.60;;;;;;5070691;28;20469;-76
2022/05/28 07:33:47;;;;;;;7.13;1.40;;;13.90;88.70;;;;;;5071383;28;20028;-73
2022/05/28 07:36:15;;;;;;;7.57;1.40;;;13.90;89.40;;;;;;5062684;28;20047;-75
2022/05/28 07:38:44;;;;;;;7.47;1.50;;;14.00;90.10;;;;;;5064737;28;20028;-69
2022/05/28 07:41:16;;;;;;;5.43;1.05;;;14.20;86.10;;;;;;5070479;28;20105;-76
2022/05/28 07:43:42;;;;;;;7.20;1.23;;;14.10;86.00;;;;;;5070847;28;20489;-76
2022/05/28 07:46:20;;;;;;;4.13;1.10;;;14.10;86.60;;;;;;5046617;28;20443;-79
2022/05/28 07:48:46;;;;;;;6.55;1.42;;;14.20;87.20;;;;;;5063519;28;20048;-76
2022/05/28 07:51:13;;;;;;;5.07;1.10;;;14.20;85.80;;;;;;5061008;28;20025;-75
2022/05/28 07:53:39;;;;;;;4.95;1.05;;;14.30;84.40;;;;;;5060005;28;20108;-77
2022/05/28 07:56:05;;;;;;;3.40;1.27;;;14.40;84.20;;;;;;5058100;28;20108;-79
2022/05/28 07:58:31;;;;;;;4.25;1.33;;;14.50;85.10;;;;;;5069498;28;20025;-75
2022/05/28 08:00:57;;;;;;;6.50;1.48;;;14.60;84.60;;;;;;5070106;28;20059;-75
2022/05/28 08:03:23;;;;;;;4.95;1.63;;;14.60;84.90;;;;;;5069672;28;20039;-76
2022/05/28 08:05:51;;;;;;;5.55;0.85;;;14.70;84.90;;;;;;5063967;28;20025;-76
2022/05/28 08:08:19;;;;;;;9.65;1.40;;;14.90;81.90;;;;;;5067366;28;20020;-76
2022/05/28 08:10:45;;;;;;;4.15;1.05;;;15.00;79.50;;;;;;5063227;28;20108;-76
2022/05/28 08:13:13;;;;;;;4.35;1.13;;;15.00;79.10;;;;;;5062652;28;20154;-77
2022/05/28 08:15:40;;;;;;;5.50;1.08;;;15.00;77.90;;;;;;5061431;28;20032;-76
2022/05/28 08:18:07;;;;;;;2.53;0.80;;;15.00;77.50;;;;;;5061136;28;20108;-76
2022/05/28 08:23:19;;;;;;;5.80;1.05;;;15.10;78.30;;;;;;5065349;28;20127;-76
2022/05/28 08:25:45;;;;;;;2.35;0.82;;;15.50;79.30;;;;;;5063742;28;20036;-77
2022/05/28 08:28:13;;;;;;;9.75;1.55;;;15.50;77.30;;;;;;5065447;28;20029;-76
2022/05/28 08:30:39;;;;;;;6.35;1.08;;;15.70;77.50;;;;;;5064072;28;20028;-76
2022/05/28 08:33:07;;;;;;;5.97;1.30;;;15.70;77.50;;;;;;5061536;28;20070;-75
2022/05/28 08:35:34;;;;;;;6.15;1.42;;;15.90;77.70;;;;;;5063607;28;20029;-76
2022/05/28 08:38:09;;;;;;;4.85;1.10;;;16.00;78.20;;;;;;5066942;28;20048;-75
2022/05/28 08:41:00;;;;;;;9.35;1.55;;;16.00;77.70;;;;;;5063147;28;20025;-74
2022/05/28 08:43:30;;;;;;;8.07;1.48;;;15.90;78.50;;;;;;5062539;28;20037;-74
2022/05/28 08:45:57;;;;;;;4.78;1.42;;;15.70;77.90;;;;;;5064835;28;20025;-77
2022/05/28 08:48:40;;;;;;;6.22;1.42;;;15.60;77.40;;;;;;5063443;28;20146;-77
2022/05/28 08:51:16;;;;;;;10.02;1.40;;;15.30;79.10;;;;;;5063415;28;20025;-78
2022/05/28 08:54:11;;;;;;;4.93;1.45;;;15.30;79.30;;;;;;5062582;28;20055;-78
2022/05/28 08:56:39;;;;;;;6.68;1.60;;;15.50;79.70;;;;;;5058006;28;20509;-77
2022/05/28 08:59:14;;;;;;;6.53;1.10;;;15.80;78.30;;;;;;5063184;28;20033;-76
2022/05/28 09:01:41;;;;;;;1.75;0.70;;;15.90;79.50;;;;;;5070892;28;20029;-76
2022/05/28 09:04:24;;;;;;;4.43;1.35;;;16.20;78.30;;;;;;5072934;28;20104;-77
2022/05/28 09:06:53;;;;;;;4.95;1.10;;;16.60;77.30;;;;;;5073136;28;20032;-76
2022/05/28 09:09:31;;;;;;;6.85;1.20;;;16.90;74.70;;;;;;5072495;28;20032;-76
2022/05/28 09:12:04;;;;;;;7.13;1.38;;;16.70;74.90;;;;;;5072847;28;20065;-76
2022/05/28 09:14:33;;;;;;;10.80;2.22;;;16.60;73.90;;;;;;5072219;28;20469;-76
2022/05/28 09:17:03;;;;;;;6.80;1.20;;;16.60;75.80;;;;;;5073629;28;20036;-75
2022/05/28 09:19:33;;;;;;;6.18;1.25;;;16.70;75.20;;;;;;5071476;28;20020;-75
2022/05/28 09:21:59;;;;;;;6.22;1.50;;;16.70;75.30;;;;;;5072786;28;20047;-76
2022/05/28 09:24:28;;;;;;;4.50;1.33;;;16.60;77.20;;;;;;5072515;28;20377;-78
2022/05/28 09:27:04;;;;;;;5.65;1.33;;;16.60;76.60;;;;;;5072717;28;20035;-77
2022/05/28 09:29:54;;;;;;;5.03;1.77;;;16.40;76.50;;;;;;5072006;28;20024;-74
2022/05/28 09:32:28;;;;;;;6.18;1.38;;;16.30;75.60;;;;;;5071843;28;20103;-76
2022/05/28 09:35:04;;;;;;;7.25;1.55;;;16.40;75.50;;;;;;5054584;28;22056;-76
2022/05/28 09:37:42;;;;;;;2.92;1.00;;;16.50;74.80;;;;;;5072185;28;20488;-73
2022/05/28 09:40:30;;;;;;;4.07;0.88;;;16.80;74.50;;;;;;5071881;28;20119;-76
2022/05/28 09:43:23;;;;;;;6.05;1.40;;;17.00;74.70;;;;;;5067334;28;20043;-72
2022/05/28 09:46:31;;;;;;;7.88;1.42;;;17.10;73.90;;;;;;5072744;28;20036;-72
2022/05/28 09:49:03;;;;;;;6.00;1.48;;;16.90;72.20;;;;;;5058933;28;20107;-73
2022/05/28 09:51:31;;;;;;;8.55;1.70;;;16.50;73.40;;;;;;5071731;28;20466;-71
2022/05/28 09:54:17;;;;;;;4.68;1.02;;;16.60;75.30;;;;;;5067621;28;20635;-79
2022/05/28 09:56:51;;;;;;;4.93;1.17;;;16.90;73.20;;;;;;5072248;28;20021;-76
2022/05/28 09:59:25;;;;;;;5.68;1.70;;;17.30;72.20;;;;;;5071758;28;20103;-71
2022/05/28 10:02:27;;;;;;;6.47;1.83;;;17.20;71.70;;;;;;5071824;28;20056;-76
2022/05/28 10:05:16;;;;;;;5.13;1.17;;;16.80;71.80;;;;;;5071448;28;20029;-75
2022/05/28 10:07:53;;;;;;;4.78;1.48;;;16.60;71.30;;;;;;5072135;28;20029;-72
2022/05/28 10:10:22;;;;;;;3.58;1.20;;;16.50;72.00;;;;;;5071219;28;20473;-71
2022/05/28 10:12:47;;;;;;;5.28;0.85;;;16.40;71.90;;;;;;5071772;28;20040;-77
2022/05/28 10:15:28;;;;;;;3.28;1.10;;;16.50;71.10;;;;;;5071190;28;20020;-72
2022/05/28 10:18:02;;;;;;;7.15;1.17;;;16.80;71.30;;;;;;5064261;28;20036;-73
2022/05/28 10:20:28;;;;;;;4.65;1.17;;;17.30;70.70;;;;;;5065887;28;20052;-75
2022/05/28 10:22:57;;;;;;;5.25;1.42;;;17.40;69.70;;;;;;5068473;28;20040;-74
2022/05/28 10:25:47;;;;;;;3.03;1.33;;;17.40;69.70;;;;;;5087636;28;20020;-75
2022/05/28 10:28:13;;;;;;;3.88;1.15;;;17.30;69.90;;;;;;5085439;28;20047;-73
2022/05/28 10:30:42;;;;;;;7.35;1.10;;;17.20;71.10;;;;;;5087342;28;20105;-80
2022/05/28 10:33:26;;;;;;;4.00;1.17;;;17.20;70.90;;;;;;5082694;28;20032;-77
2022/05/28 10:35:53;;;;;;;5.03;1.23;;;16.90;70.40;;;;;;5082513;28;20510;-76
2022/05/28 10:38:25;;;;;;;5.35;1.80;;;16.80;71.20;;;;;;5077029;28;20077;-78
2022/05/28 10:40:50;;;;;;;3.22;1.45;;;16.80;72.70;;;;;;5082346;28;20040;-75
2022/05/28 10:43:34;;;;;;;5.47;1.35;;;16.90;71.90;;;;;;5080438;28;20039;-75
2022/05/28 10:46:24;;;;;;;5.72;1.58;;;17.00;72.50;;;;;;5079638;28;20033;-78
2022/05/28 10:48:52;;;;;;;4.30;1.13;;;17.10;72.50;;;;;;5084883;28;20756;-77
2022/05/28 10:51:37;;;;;;;4.85;1.55;;;17.30;71.80;;;;;;5078989;28;20186;-77
2022/05/28 10:54:11;;;;;;;5.03;1.60;;;17.40;69.30;;;;;;5080533;28;20069;-82
2022/05/28 10:57:05;;;;;;;5.28;1.50;;;17.60;69.80;;;;;;5081363;28;20035;-80
2022/05/28 10:59:36;;;;;;;10.70;1.85;;;17.90;69.90;;;;;;5084698;28;20028;-79
2022/05/28 11:02:31;;;;;;;6.60;1.10;;;18.20;68.80;;;;;;5091451;28;20036;-76
2022/05/28 11:04:59;;;;;;;4.50;0.82;;;18.30;64.90;;;;;;5091707;28;20051;-76
2022/05/28 11:07:34;;;;;;;2.65;0.90;;;18.40;63.20;;;;;;5090797;28;20133;-77
2022/05/28 11:10:24;;;;;;;3.28;1.00;;;18.50;63.50;;;;;;5091677;28;20020;-78
2022/05/28 11:13:11;;;;;;;3.90;0.90;;;18.60;62.80;;;;;;5091633;28;20032;-78
2022/05/28 11:16:02;;;;;;;6.35;1.45;;;18.80;64.70;;;;;;5079726;28;20040;-82
2022/05/28 11:19:00;;;;;;;7.72;1.20;;;19.10;63.90;;;;;;5080784;28;20023;-79
2022/05/28 11:21:51;;;;;;;5.85;1.70;;;19.20;64.30;;;;;;5058698;28;20516;-75
2022/05/28 11:24:37;;;;;;;5.38;1.52;;;18.90;64.60;;;;;;5062637;28;20107;-76
2022/05/28 11:27:33;;;;;;;5.78;1.13;;;18.80;64.40;;;;;;5060839;28;20024;-76
2022/05/28 11:30:22;;;;;;;7.25;1.40;;;18.70;64.10;;;;;;5060052;28;20029;-76
2022/05/28 11:32:58;;;;;;;6.05;1.60;;;18.60;64.20;;;;;;5062701;28;20174;-77
2022/05/28 11:35:42;;;;;;;3.28;1.15;;;18.60;61.30;;;;;;5058867;28;20037;-77
2022/05/28 11:38:47;;;;;;;3.05;1.17;;;18.70;61.60;;;;;;5046112;28;20029;-78
2022/05/28 11:41:18;;;;;;;7.90;1.05;;;18.90;62.30;;;;;;5060076;28;20496;-78
2022/05/28 11:44:03;;;;;;;4.38;1.13;;;19.00;60.00;;;;;;5062036;28;20095;-75
2022/05/28 11:46:47;;;;;;;3.05;1.02;;;18.90;61.20;;;;;;5060253;28;20029;-80
2022/05/28 11:52:25;;;;;;;6.70;1.10;;;19.00;60.10;;;;;;5044806;28;20040;-77
2022/05/28 11:55:25;;;;;;;2.80;0.82;;;19.20;60.70;;;;;;5061121;28;20063;-79
2022/05/28 11:58:05;;;;;;;4.78;1.10;;;19.50;60.00;;;;;;5067622;28;20080;-77
2022/05/28 12:00:38;;;;;;;4.03;1.10;;;19.80;77.00;;;;;;5064540;28;20072;-75
2022/05/28 12:03:18;;;;;;;6.25;1.27;;;20.10;58.30;;;;;;5063121;28;20037;-74
2022/05/28 12:05:49;;;;;;;5.72;1.10;;;20.20;57.80;;;;;;5066524;28;20031;-75
2022/05/28 12:08:41;;;;;;;4.97;1.35;;;20.30;58.20;;;;;;5064481;28;20078;-76
2022/05/28 12:11:21;;;;;;;8.38;1.67;;;20.60;57.90;;;;;;5066605;28;20027;-79
2022/05/28 12:13:54;;;;;;;3.05;1.00;;;20.80;57.70;;;;;;5063174;28;20025;-80
2022/05/28 12:16:40;;;;;;;5.20;1.60;;;21.00;58.70;;;;;;5044875;28;20043;-78
2022/05/28 12:19:22;;;;;;;3.53;0.93;;;21.40;57.70;;;;;;5066086;28;20067;-77
2022/05/28 12:21:48;;;;;;;5.03;1.33;;;21.00;56.60;;;;;;5064816;28;20140;-77
2022/05/28 12:24:20;;;;;;;4.22;1.52;;;20.40;56.90;;;;;;5061644;28;20546;-76
2022/05/28 12:29:49;;;;;;;4.60;0.85;;;19.60;58.20;;;;;;5065702;28;20025;-85
2022/05/28 12:32:17;;;;;;;6.90;1.25;;;19.50;59.90;;;;;;5065084;28;20331;-78
2022/05/28 12:35:01;;;;;;;6.20;1.20;;;19.70;59.60;;;;;;5048914;28;20053;-79
2022/05/28 12:37:36;;;;;;;4.32;1.20;;;19.80;59.30;;;;;;5065508;28;20032;-76
2022/05/28 12:40:27;;;;;;;5.22;1.40;;;19.70;58.40;;;;;;5066733;28;20023;-80
2022/05/28 12:42:53;;;;;;;3.33;1.00;;;19.40;60.00;;;;;;5048432;28;20044;-77
2022/05/28 12:45:25;;;;;;;13.70;1.95;;;19.20;60.10;;;;;;5060852;28;20466;-76
2022/05/28 12:47:51;;;;;;;3.40;1.10;;;18.70;60.80;;;;;;5060910;28;20086;-77
2022/05/28 12:50:42;;;;;;;4.15;1.08;;;18.30;61.10;;;;;;5041692;28;20025;-79
2022/05/28 12:53:18;;;;;;;7.97;1.27;;;18.30;61.00;;;;;;5064889;28;20029;-75
2022/05/28 12:55:44;;;;;;;8.02;1.10;;;18.30;61.20;;;;;;5049002;28;20377;-76
2022/05/28 12:58:21;;;;;;;5.10;1.25;;;18.40;61.70;;;;;;5066174;28;20027;-75
2022/05/28 13:00:54;;;;;;;5.82;1.15;;;18.40;61.70;;;;;;5060697;28;20497;-79
2022/05/28 13:03:28;;;;;;;5.30;1.30;;;18.70;63.70;;;;;;5064067;28;20037;-78
2022/05/28 13:06:14;;;;;;;5.57;0.98;;;19.30;62.80;;;;;;5062703;28;20067;-76
2022/05/28 13:08:49;;;;;;;7.40;1.42;;;19.50;59.00;;;;;;5064315;28;20430;-75
2022/05/28 13:11:46;;;;;;;3.40;1.42;;;19.40;59.60;;;;;;5059826;28;20087;-77
2022/05/28 13:14:54;;;;;;;4.43;0.93;;;19.70;60.30;;;;;;5061974;28;20036;-76
2022/05/28 13:17:50;;;;;;;4.57;1.08;;;20.30;60.30;;;;;;5018282;28;20120;-78
2022/05/28 13:20:29;;;;;;;4.63;1.40;;;21.00;57.90;;;;;;5060783;28;20043;-75